메인 페이지
METAR-TAF:

METAR-TAF

공항 :

사가, 일본

사가 공항

위도: 33-09N, 경도: 130-18E, 고도: 2m

현재 날씨관측

예보는 26분 전, 11:00시(UTC)에 발표되었습니다.
6kt
온도 8°C
습도 53%
기압 1018 hPa
시정 10km 이상
1500m 미만 상공 구름 및 적란운 없음

METAR: RJFS 201100Z 36006KT CAVOK 08/M01 Q1018

시각: 20:26 (11:26 UTC)

예보

예보는 4 시간 32분 전, 06:54시(UTC)에 발표되었습니다.
예보 대상 시간: 20일 06시부터 21일 12시까지 (UTC)
북동8kt
시정 10km 이상
고도 4000ft 상공 구름 조금
전환 중
20일 18시부터 20일 21시까지 (UTC)
북북서9kt
전환 중
21일 09시부터 21일 12시까지 (UTC)
북북동7kt

TAF: RJFS 200654Z 2006/2112 05008KT 9999 FEW040 BECMG 2018/2021 34009KT BECMG 2109/2112 02007KT

4,000개 이상의 공항 관측 자료 및 예보 (METAR 및 TAF 보고).

지도상에서 검색 가능한 기상관측소가 노란 점과 빨간 점으로 표시되어 있습니다.

기상관측소 명을 보려면 표시 위로 마우스를 이동하세요.

날씨 관측과 예보를 보려면 클릭하세요.

지도 변경 : 확대하려면 엑스 표시가 있는 녹색 버튼, 축소하려면 빼기 표시가 있는 녹색 버튼, 다음 페이지의 지도를 보려면 녹색 화살표를 클릭하세요.


METAR-TAF: